Search for airport 
image banner adimage banner ad
image banner ad

DAAD - Bou Saada

Located in Bou Saada, Algeria

ICAO - DAAD, IATA - BUJ

Data provided by Airmate  

General information

Coordinates: N35°19'53" E4°12'16"
Elevation is 1505 feet MSL.
 
Rated:
View ratings: [VIEW]


View others Airports in M'Sila Province

Operational data

Open for public use
Current time UTC:
Current local time:
Weather
METAR: DAAD 141300Z 20010KT 7000 FEW026CB SCT030 40/09 Q1015
TAF: TAF DAAD 141100Z 1412/1421 22008KT 9999 SCT030 PROB40 TEMPO 1412/1418 FEW033CB PROB30 TEMPO 1414/1418 24015G25KT 4000 -TSRA FEW033CB
View NOTAMs / SUP AIP / TFR affecting this airport [VIEW]
Communications frequencies: [VIEW]

Runways:

RWY identifierQFULength (ft)Width (ft)SurfaceLDA (ft)
0442°721898ASP
22222°721898

Airport contact information

Address: Bou Saada Algeria

Satellite view of DAAD